sensor_id;sensor_type;location;lat;lon;timestamp;pressure;altitude;pressure_sealevel;temperature;humidity
45894;BME280;31603;51.148;16.932;2022-09-19T00:00:38;99306.09;;;9.33;100.00
45894;BME280;31603;51.148;16.932;2022-09-19T00:03:05;99276.91;;;9.39;100.00
45894;BME280;31603;51.148;16.932;2022-09-19T00:05:32;99305.69;;;9.05;100.00
45894;BME280;31603;51.148;16.932;2022-09-19T00:07:59;99299.69;;;9.14;100.00
45894;BME280;31603;51.148;16.932;2022-09-19T00:10:26;99301.94;;;9.24;100.00
45894;BME280;31603;51.148;16.932;2022-09-19T00:12:57;99314.47;;;9.13;100.00
45894;BME280;31603;51.148;16.932;2022-09-19T00:15:23;99305.69;;;9.30;100.00
45894;BME280;31603;51.148;16.932;2022-09-19T00:17:50;99301.38;;;9.15;100.00
45894;BME280;31603;51.148;16.932;2022-09-19T00:20:16;99260.63;;;8.94;100.00
45894;BME280;31603;51.148;16.932;2022-09-19T00:22:43;99299.81;;;9.01;100.00
45894;BME280;31603;51.148;16.932;2022-09-19T00:25:31;99289.69;;;9.02;100.00
45894;BME280;31603;51.148;16.932;2022-09-19T00:27:57;99287.28;;;8.80;100.00
45894;BME280;31603;51.148;16.932;2022-09-19T00:30:23;99291.59;;;8.70;100.00
45894;BME280;31603;51.148;16.932;2022-09-19T00:32:49;99270.13;;;8.60;100.00
45894;BME280;31603;51.148;16.932;2022-09-19T00:35:16;99295.94;;;9.09;100.00
45894;BME280;31603;51.148;16.932;2022-09-19T00:37:42;99289.34;;;9.16;100.00
45894;BME280;31603;51.148;16.932;2022-09-19T00:40:09;99267.88;;;8.82;100.00
45894;BME280;31603;51.148;16.932;2022-09-19T00:42:37;99293.31;;;9.21;100.00
45894;BME280;31603;51.148;16.932;2022-09-19T00:45:11;99281.56;;;8.82;100.00
45894;BME280;31603;51.148;16.932;2022-09-19T00:47:41;99287.91;;;9.57;100.00
45894;BME280;31603;51.148;16.932;2022-09-19T00:50:14;99279.38;;;9.65;100.00
45894;BME280;31603;51.148;16.932;2022-09-19T00:52:44;99278.59;;;9.58;100.00
45894;BME280;31603;51.148;16.932;2022-09-19T00:55:12;99286.44;;;9.11;100.00
45894;BME280;31603;51.148;16.932;2022-09-19T00:57:49;99227.41;;;8.14;100.00
45894;BME280;31603;51.148;16.932;2022-09-19T01:00:16;99294.13;;;8.19;100.00
45894;BME280;31603;51.148;16.932;2022-09-19T01:02:43;99252.63;;;8.23;100.00
45894;BME280;31603;51.148;16.932;2022-09-19T01:05:11;99285.91;;;8.19;100.00
45894;BME280;31603;51.148;16.932;2022-09-19T01:07:56;99306.84;;;8.52;100.00
45894;BME280;31603;51.148;16.932;2022-09-19T01:10:36;99288.06;;;8.17;100.00
45894;BME280;31603;51.148;16.932;2022-09-19T01:13:19;99302.34;;;8.19;100.00
45894;BME280;31603;51.148;16.932;2022-09-19T01:15:51;99269.59;;;8.00;100.00
45894;BME280;31603;51.148;16.932;2022-09-19T01:18:24;99309.47;;;8.27;100.00
45894;BME280;31603;51.148;16.932;2022-09-19T01:20:59;99310.72;;;8.38;100.00
45894;BME280;31603;51.148;16.932;2022-09-19T01:26:58;99293.78;;;8.54;100.00
45894;BME280;31603;51.148;16.932;2022-09-19T01:29:32;99310.00;;;8.56;100.00
45894;BME280;31603;51.148;16.932;2022-09-19T01:32:03;99314.34;;;9.02;100.00
45894;BME280;31603;51.148;16.932;2022-09-19T01:34:36;99304.22;;;9.27;100.00
45894;BME280;31603;51.148;16.932;2022-09-19T01:37:07;99285.22;;;9.26;100.00
45894;BME280;31603;51.148;16.932;2022-09-19T01:39:37;99253.69;;;9.16;100.00
45894;BME280;31603;51.148;16.932;2022-09-19T01:42:05;99296.84;;;9.28;100.00
45894;BME280;31603;51.148;16.932;2022-09-19T01:44:36;99256.84;;;8.88;100.00
45894;BME280;31603;51.148;16.932;2022-09-19T01:47:13;99309.34;;;9.24;100.00
45894;BME280;31603;51.148;16.932;2022-09-19T01:49:50;99294.50;;;9.75;100.00
45894;BME280;31603;51.148;16.932;2022-09-19T01:52:27;99294.44;;;10.00;100.00
45894;BME280;31603;51.148;16.932;2022-09-19T01:55:04;99292.66;;;9.87;100.00
45894;BME280;31603;51.148;16.932;2022-09-19T01:57:39;99292.81;;;10.10;100.00
45894;BME280;31603;51.148;16.932;2022-09-19T02:00:15;99289.44;;;9.72;100.00
45894;BME280;31603;51.148;16.932;2022-09-19T02:02:51;99269.72;;;9.81;100.00
45894;BME280;31603;51.148;16.932;2022-09-19T02:05:26;99270.63;;;9.32;100.00
45894;BME280;31603;51.148;16.932;2022-09-19T02:07:59;99297.00;;;9.33;100.00
45894;BME280;31603;51.148;16.932;2022-09-19T02:10:37;99303.75;;;9.37;100.00
45894;BME280;31603;51.148;16.932;2022-09-19T02:13:06;99291.75;;;9.31;100.00
45894;BME280;31603;51.148;16.932;2022-09-19T02:15:39;99296.94;;;9.14;100.00
45894;BME280;31603;51.148;16.932;2022-09-19T02:18:17;99300.81;;;9.32;100.00
45894;BME280;31603;51.148;16.932;2022-09-19T02:20:48;99278.91;;;8.75;100.00
45894;BME280;31603;51.148;16.932;2022-09-19T02:23:20;99279.59;;;8.96;100.00
45894;BME280;31603;51.148;16.932;2022-09-19T02:25:48;99283.22;;;9.14;100.00
45894;BME280;31603;51.148;16.932;2022-09-19T02:28:20;99300.91;;;9.19;100.00
45894;BME280;31603;51.148;16.932;2022-09-19T02:30:49;99295.56;;;9.05;100.00
45894;BME280;31603;51.148;16.932;2022-09-19T02:33:16;99307.59;;;9.04;100.00
45894;BME280;31603;51.148;16.932;2022-09-19T02:35:46;99265.88;;;9.21;100.00
45894;BME280;31603;51.148;16.932;2022-09-19T02:38:20;99298.56;;;8.97;100.00
45894;BME280;31603;51.148;16.932;2022-09-19T02:40:54;99305.75;;;9.48;100.00
45894;BME280;31603;51.148;16.932;2022-09-19T02:43:28;99307.47;;;9.18;100.00
45894;BME280;31603;51.148;16.932;2022-09-19T02:46:04;99242.72;;;8.91;100.00
45894;BME280;31603;51.148;16.932;2022-09-19T02:48:39;99312.00;;;9.05;100.00
45894;BME280;31603;51.148;16.932;2022-09-19T02:51:10;99324.22;;;9.09;100.00
45894;BME280;31603;51.148;16.932;2022-09-19T02:53:42;99315.66;;;9.49;100.00
45894;BME280;31603;51.148;16.932;2022-09-19T02:56:10;99302.09;;;9.73;100.00
45894;BME280;31603;51.148;16.932;2022-09-19T02:58:42;99306.09;;;9.77;100.00
45894;BME280;31603;51.148;16.932;2022-09-19T03:01:16;99293.03;;;9.29;100.00
45894;BME280;31603;51.148;16.932;2022-09-19T03:03:48;99307.38;;;9.31;100.00
45894;BME280;31603;51.148;16.932;2022-09-19T03:06:37;99273.16;;;9.08;100.00
45894;BME280;31603;51.148;16.932;2022-09-19T03:09:05;99315.19;;;9.52;100.00
45894;BME280;31603;51.148;16.932;2022-09-19T03:11:34;99322.97;;;9.05;100.00
45894;BME280;31603;51.148;16.932;2022-09-19T03:14:03;99322.16;;;9.30;100.00
45894;BME280;31603;51.148;16.932;2022-09-19T03:16:34;99318.44;;;9.18;100.00
45894;BME280;31603;51.148;16.932;2022-09-19T03:19:03;99325.28;;;9.08;100.00
45894;BME280;31603;51.148;16.932;2022-09-19T03:21:31;99330.16;;;9.56;100.00
45894;BME280;31603;51.148;16.932;2022-09-19T03:23:57;99317.13;;;9.52;100.00
45894;BME280;31603;51.148;16.932;2022-09-19T03:26:26;99329.34;;;9.74;100.00
45894;BME280;31603;51.148;16.932;2022-09-19T03:28:56;99245.41;;;8.98;100.00
45894;BME280;31603;51.148;16.932;2022-09-19T03:31:24;99324.91;;;9.30;100.00
45894;BME280;31603;51.148;16.932;2022-09-19T03:33:52;99328.66;;;9.79;100.00
45894;BME280;31603;51.148;16.932;2022-09-19T03:36:27;99340.38;;;9.68;100.00
45894;BME280;31603;51.148;16.932;2022-09-19T03:38:54;99331.09;;;9.87;100.00
45894;BME280;31603;51.148;16.932;2022-09-19T03:41:29;99322.03;;;10.05;100.00
45894;BME280;31603;51.148;16.932;2022-09-19T03:43:58;99318.09;;;9.57;100.00
45894;BME280;31603;51.148;16.932;2022-09-19T03:46:27;99338.53;;;9.61;100.00
45894;BME280;31603;51.148;16.932;2022-09-19T03:48:57;99342.34;;;9.60;100.00
45894;BME280;31603;51.148;16.932;2022-09-19T03:51:26;99315.50;;;9.44;100.00
45894;BME280;31603;51.148;16.932;2022-09-19T03:53:52;99347.06;;;9.53;100.00
45894;BME280;31603;51.148;16.932;2022-09-19T03:56:19;99344.44;;;9.83;100.00
45894;BME280;31603;51.148;16.932;2022-09-19T03:58:45;99326.47;;;8.87;100.00
45894;BME280;31603;51.148;16.932;2022-09-19T04:01:12;99317.78;;;8.97;100.00
45894;BME280;31603;51.148;16.932;2022-09-19T04:03:40;99348.03;;;9.15;100.00
45894;BME280;31603;51.148;16.932;2022-09-19T04:06:09;99357.56;;;9.06;100.00
45894;BME280;31603;51.148;16.932;2022-09-19T04:08:35;99352.22;;;8.86;100.00
45894;BME280;31603;51.148;16.932;2022-09-19T04:11:02;99311.91;;;8.55;100.00
45894;BME280;31603;51.148;16.932;2022-09-19T04:13:28;99354.34;;;8.84;100.00
45894;BME280;31603;51.148;16.932;2022-09-19T04:15:58;99349.53;;;9.11;100.00
45894;BME280;31603;51.148;16.932;2022-09-19T04:18:25;99356.09;;;9.35;100.00
45894;BME280;31603;51.148;16.932;2022-09-19T04:20:52;99290.50;;;9.02;100.00
45894;BME280;31603;51.148;16.932;2022-09-19T04:23:21;99366.13;;;9.48;100.00
45894;BME280;31603;51.148;16.932;2022-09-19T04:25:52;99346.63;;;9.31;100.00
45894;BME280;31603;51.148;16.932;2022-09-19T04:28:18;99362.59;;;9.66;100.00
45894;BME280;31603;51.148;16.932;2022-09-19T04:30:47;99367.06;;;9.35;100.00
45894;BME280;31603;51.148;16.932;2022-09-19T04:33:14;99378.09;;;9.79;100.00
45894;BME280;31603;51.148;16.932;2022-09-19T04:35:43;99382.97;;;9.77;100.00
45894;BME280;31603;51.148;16.932;2022-09-19T04:38:11;99376.09;;;9.68;100.00
45894;BME280;31603;51.148;16.932;2022-09-19T04:40:41;99362.53;;;9.48;100.00
45894;BME280;31603;51.148;16.932;2022-09-19T04:43:08;99387.56;;;9.58;100.00
45894;BME280;31603;51.148;16.932;2022-09-19T04:45:35;99390.09;;;9.84;100.00
45894;BME280;31603;51.148;16.932;2022-09-19T04:48:02;99378.28;;;10.02;100.00
45894;BME280;31603;51.148;16.932;2022-09-19T04:50:31;99355.56;;;9.95;100.00
45894;BME280;31603;51.148;16.932;2022-09-19T04:52:57;99383.31;;;10.24;100.00
45894;BME280;31603;51.148;16.932;2022-09-19T04:55:29;99365.81;;;9.31;100.00
45894;BME280;31603;51.148;16.932;2022-09-19T04:57:57;99400.97;;;9.48;100.00
45894;BME280;31603;51.148;16.932;2022-09-19T05:00:26;99410.56;;;9.32;100.00
45894;BME280;31603;51.148;16.932;2022-09-19T05:03:05;99409.13;;;9.54;100.00
45894;BME280;31603;51.148;16.932;2022-09-19T05:05:34;99398.03;;;9.68;100.00
45894;BME280;31603;51.148;16.932;2022-09-19T05:08:02;99401.34;;;9.76;100.00
45894;BME280;31603;51.148;16.932;2022-09-19T05:10:30;99402.41;;;10.00;100.00
45894;BME280;31603;51.148;16.932;2022-09-19T05:12:59;99411.94;;;9.73;100.00
45894;BME280;31603;51.148;16.932;2022-09-19T05:15:25;99421.47;;;9.45;100.00
45894;BME280;31603;51.148;16.932;2022-09-19T05:17:52;99393.56;;;9.48;100.00
45894;BME280;31603;51.148;16.932;2022-09-19T05:20:19;99414.50;;;9.93;100.00
45894;BME280;31603;51.148;16.932;2022-09-19T05:22:46;99428.91;;;9.38;100.00
45894;BME280;31603;51.148;16.932;2022-09-19T05:25:12;99405.03;;;9.07;100.00
45894;BME280;31603;51.148;16.932;2022-09-19T05:27:40;99445.16;;;9.33;100.00
45894;BME280;31603;51.148;16.932;2022-09-19T05:30:10;99445.69;;;9.16;100.00
45894;BME280;31603;51.148;16.932;2022-09-19T05:32:37;99381.44;;;8.99;100.00
45894;BME280;31603;51.148;16.932;2022-09-19T05:35:08;99446.31;;;9.19;100.00
45894;BME280;31603;51.148;16.932;2022-09-19T05:37:38;99443.03;;;9.42;100.00
45894;BME280;31603;51.148;16.932;2022-09-19T05:40:06;99453.03;;;9.54;100.00
45894;BME280;31603;51.148;16.932;2022-09-19T05:42:33;99438.50;;;9.79;100.00
45894;BME280;31603;51.148;16.932;2022-09-19T05:45:00;99449.41;;;9.60;100.00
45894;BME280;31603;51.148;16.932;2022-09-19T05:47:29;99444.13;;;9.34;100.00
45894;BME280;31603;51.148;16.932;2022-09-19T05:49:55;99408.22;;;9.04;100.00
45894;BME280;31603;51.148;16.932;2022-09-19T05:52:21;99470.94;;;9.32;100.00
45894;BME280;31603;51.148;16.932;2022-09-19T05:55:06;99467.75;;;9.35;100.00
45894;BME280;31603;51.148;16.932;2022-09-19T05:57:33;99464.13;;;9.41;100.00
45894;BME280;31603;51.148;16.932;2022-09-19T06:00:02;99449.75;;;9.07;100.00
45894;BME280;31603;51.148;16.932;2022-09-19T06:02:31;99417.72;;;9.33;100.00
45894;BME280;31603;51.148;16.932;2022-09-19T06:04:58;99445.00;;;9.59;100.00
45894;BME280;31603;51.148;16.932;2022-09-19T06:07:25;99453.59;;;9.38;100.00
45894;BME280;31603;51.148;16.932;2022-09-19T06:09:51;99470.22;;;9.75;100.00
45894;BME280;31603;51.148;16.932;2022-09-19T06:12:27;99429.56;;;9.58;100.00
45894;BME280;31603;51.148;16.932;2022-09-19T06:14:57;99459.38;;;9.55;100.00
45894;BME280;31603;51.148;16.932;2022-09-19T06:17:25;99449.78;;;9.39;100.00
45894;BME280;31603;51.148;16.932;2022-09-19T06:20:08;99430.50;;;9.77;100.00
45894;BME280;31603;51.148;16.932;2022-09-19T06:22:48;99405.56;;;9.79;100.00
45894;BME280;31603;51.148;16.932;2022-09-19T06:25:18;99471.94;;;9.44;100.00
45894;BME280;31603;51.148;16.932;2022-09-19T06:27:52;99472.22;;;9.61;100.00
45894;BME280;31603;51.148;16.932;2022-09-19T06:30:18;99438.38;;;9.42;100.00
45894;BME280;31603;51.148;16.932;2022-09-19T06:32:45;99486.94;;;9.42;100.00
45894;BME280;31603;51.148;16.932;2022-09-19T06:35:13;99492.38;;;10.05;100.00
45894;BME280;31603;51.148;16.932;2022-09-19T06:37:39;99469.44;;;9.68;100.00
45894;BME280;31603;51.148;16.932;2022-09-19T06:40:08;99473.75;;;10.07;100.00
45894;BME280;31603;51.148;16.932;2022-09-19T06:42:36;99498.38;;;9.95;100.00
45894;BME280;31603;51.148;16.932;2022-09-19T06:45:02;99488.19;;;10.02;100.00
45894;BME280;31603;51.148;16.932;2022-09-19T06:47:31;99486.81;;;10.36;100.00
45894;BME280;31603;51.148;16.932;2022-09-19T06:49:57;99496.34;;;10.34;100.00
45894;BME280;31603;51.148;16.932;2022-09-19T06:52:32;99463.56;;;10.14;100.00
45894;BME280;31603;51.148;16.932;2022-09-19T06:55:02;99507.69;;;10.63;100.00
45894;BME280;31603;51.148;16.932;2022-09-19T06:57:28;99493.63;;;10.89;100.00
45894;BME280;31603;51.148;16.932;2022-09-19T07:00:06;99489.50;;;10.18;100.00
45894;BME280;31603;51.148;16.932;2022-09-19T07:02:33;99434.91;;;10.03;100.00
45894;BME280;31603;51.148;16.932;2022-09-19T07:04:59;99427.16;;;9.94;100.00
45894;BME280;31603;51.148;16.932;2022-09-19T07:07:27;99475.34;;;9.96;100.00
45894;BME280;31603;51.148;16.932;2022-09-19T07:09:57;99511.59;;;10.55;100.00
45894;BME280;31603;51.148;16.932;2022-09-19T07:12:29;99506.56;;;10.27;100.00
45894;BME280;31603;51.148;16.932;2022-09-19T07:15:04;99461.41;;;10.16;100.00
45894;BME280;31603;51.148;16.932;2022-09-19T07:17:30;99518.88;;;11.04;100.00
45894;BME280;31603;51.148;16.932;2022-09-19T07:19:58;99494.31;;;11.03;100.00
45894;BME280;31603;51.148;16.932;2022-09-19T07:22:33;99468.50;;;10.24;100.00
45894;BME280;31603;51.148;16.932;2022-09-19T07:25:02;99532.41;;;11.36;100.00
45894;BME280;31603;51.148;16.932;2022-09-19T07:27:28;99526.88;;;11.06;100.00
45894;BME280;31603;51.148;16.932;2022-09-19T07:29:55;99517.63;;;10.64;100.00
45894;BME280;31603;51.148;16.932;2022-09-19T07:32:23;99526.03;;;11.05;100.00
45894;BME280;31603;51.148;16.932;2022-09-19T07:34:50;99527.84;;;11.60;100.00
45894;BME280;31603;51.148;16.932;2022-09-19T07:37:18;99529.53;;;11.31;100.00
45894;BME280;31603;51.148;16.932;2022-09-19T07:39:46;99538.78;;;11.37;100.00
45894;BME280;31603;51.148;16.932;2022-09-19T07:42:13;99512.41;;;11.11;100.00
45894;BME280;31603;51.148;16.932;2022-09-19T07:44:39;99536.97;;;11.91;100.00
45894;BME280;31603;51.148;16.932;2022-09-19T07:47:06;99520.03;;;11.45;100.00
45894;BME280;31603;51.148;16.932;2022-09-19T07:49:50;99531.72;;;12.13;100.00
45894;BME280;31603;51.148;16.932;2022-09-19T07:52:23;99522.81;;;11.87;100.00
45894;BME280;31603;51.148;16.932;2022-09-19T07:54:51;99545.59;;;11.34;100.00
45894;BME280;31603;51.148;16.932;2022-09-19T07:57:17;99543.63;;;11.83;100.00
45894;BME280;31603;51.148;16.932;2022-09-19T07:59:44;99533.09;;;12.22;100.00
45894;BME280;31603;51.148;16.932;2022-09-19T08:02:12;99505.69;;;11.85;100.00
45894;BME280;31603;51.148;16.932;2022-09-19T08:04:43;99497.00;;;11.09;100.00
45894;BME280;31603;51.148;16.932;2022-09-19T08:07:09;99559.91;;;11.73;100.00
45894;BME280;31603;51.148;16.932;2022-09-19T08:09:42;99499.53;;;11.11;100.00
45894;BME280;31603;51.148;16.932;2022-09-19T08:12:09;99524.63;;;11.15;100.00
45894;BME280;31603;51.148;16.932;2022-09-19T08:14:37;99585.19;;;11.51;100.00
45894;BME280;31603;51.148;16.932;2022-09-19T08:17:04;99522.91;;;11.50;100.00
45894;BME280;31603;51.148;16.932;2022-09-19T08:19:31;99527.25;;;10.73;100.00
45894;BME280;31603;51.148;16.932;2022-09-19T08:21:58;99522.00;;;10.90;100.00
45894;BME280;31603;51.148;16.932;2022-09-19T08:24:26;99516.63;;;11.13;100.00
45894;BME280;31603;51.148;16.932;2022-09-19T08:26:53;99579.50;;;12.37;100.00
45894;BME280;31603;51.148;16.932;2022-09-19T08:29:22;99574.13;;;11.88;100.00
45894;BME280;31603;51.148;16.932;2022-09-19T08:31:51;99569.88;;;11.55;100.00
45894;BME280;31603;51.148;16.932;2022-09-19T08:34:18;99560.13;;;12.01;100.00
45894;BME280;31603;51.148;16.932;2022-09-19T08:36:45;99580.38;;;12.72;100.00
45894;BME280;31603;51.148;16.932;2022-09-19T08:39:11;99572.06;;;12.37;100.00
45894;BME280;31603;51.148;16.932;2022-09-19T08:41:50;99538.13;;;12.48;100.00
45894;BME280;31603;51.148;16.932;2022-09-19T08:47:10;99558.88;;;12.86;100.00
45894;BME280;31603;51.148;16.932;2022-09-19T08:49:42;99570.28;;;13.82;100.00
45894;BME280;31603;51.148;16.932;2022-09-19T08:52:24;99557.97;;;13.73;100.00
45894;BME280;31603;51.148;16.932;2022-09-19T08:54:52;99584.97;;;13.42;100.00
45894;BME280;31603;51.148;16.932;2022-09-19T08:57:24;99581.34;;;13.82;100.00
45894;BME280;31603;51.148;16.932;2022-09-19T08:59:52;99574.22;;;13.29;100.00
45894;BME280;31603;51.148;16.932;2022-09-19T09:02:31;99598.06;;;13.76;100.00
45894;BME280;31603;51.148;16.932;2022-09-19T09:05:01;99539.22;;;12.71;100.00
45894;BME280;31603;51.148;16.932;2022-09-19T09:07:36;99575.06;;;12.94;100.00
45894;BME280;31603;51.148;16.932;2022-09-19T09:10:23;99571.84;;;12.74;100.00
45894;BME280;31603;51.148;16.932;2022-09-19T09:13:01;99600.97;;;13.17;100.00
45894;BME280;31603;51.148;16.932;2022-09-19T09:15:41;99595.25;;;12.71;100.00
45894;BME280;31603;51.148;16.932;2022-09-19T09:18:26;99608.19;;;12.71;100.00
45894;BME280;31603;51.148;16.932;2022-09-19T09:21:02;99542.06;;;12.29;100.00
45894;BME280;31603;51.148;16.932;2022-09-19T09:23:40;99583.91;;;12.38;100.00
45894;BME280;31603;51.148;16.932;2022-09-19T09:26:13;99548.31;;;12.36;100.00
45894;BME280;31603;51.148;16.932;2022-09-19T09:28:42;99556.59;;;12.60;100.00
45894;BME280;31603;51.148;16.932;2022-09-19T09:31:24;99603.75;;;12.93;100.00
45894;BME280;31603;51.148;16.932;2022-09-19T09:33:57;99619.53;;;13.57;100.00
45894;BME280;31603;51.148;16.932;2022-09-19T09:36:30;99562.84;;;12.90;100.00
45894;BME280;31603;51.148;16.932;2022-09-19T09:39:13;99562.78;;;12.08;100.00
45894;BME280;31603;51.148;16.932;2022-09-19T09:41:46;99631.59;;;12.80;100.00
45894;BME280;31603;51.148;16.932;2022-09-19T09:44:32;99590.06;;;12.51;100.00
45894;BME280;31603;51.148;16.932;2022-09-19T09:47:18;99605.56;;;12.76;100.00
45894;BME280;31603;51.148;16.932;2022-09-19T09:50:17;99608.53;;;12.39;100.00
45894;BME280;31603;51.148;16.932;2022-09-19T09:53:04;99613.06;;;12.45;100.00
45894;BME280;31603;51.148;16.932;2022-09-19T09:55:45;99592.25;;;12.96;100.00
45894;BME280;31603;51.148;16.932;2022-09-19T09:58:34;99614.06;;;13.10;100.00
45894;BME280;31603;51.148;16.932;2022-09-19T10:01:23;99545.19;;;12.33;100.00
45894;BME280;31603;51.148;16.932;2022-09-19T10:04:16;99634.59;;;13.02;100.00
45894;BME280;31603;51.148;16.932;2022-09-19T10:07:07;99626.69;;;12.94;100.00
45894;BME280;31603;51.148;16.932;2022-09-19T10:09:49;99645.84;;;12.65;100.00
45894;BME280;31603;51.148;16.932;2022-09-19T10:12:40;99630.13;;;12.66;100.00
45894;BME280;31603;51.148;16.932;2022-09-19T10:15:17;99623.75;;;12.00;100.00
45894;BME280;31603;51.148;16.932;2022-09-19T10:17:58;99589.88;;;11.81;100.00
45894;BME280;31603;51.148;16.932;2022-09-19T10:20:44;99650.81;;;11.91;100.00
45894;BME280;31603;51.148;16.932;2022-09-19T10:23:19;99586.94;;;11.94;100.00
45894;BME280;31603;51.148;16.932;2022-09-19T10:25:59;99642.16;;;12.83;100.00
45894;BME280;31603;51.148;16.932;2022-09-19T10:28:31;99580.31;;;12.37;100.00
45894;BME280;31603;51.148;16.932;2022-09-19T10:31:01;99640.09;;;12.67;100.00
45894;BME280;31603;51.148;16.932;2022-09-19T10:33:37;99663.38;;;13.06;100.00
45894;BME280;31603;51.148;16.932;2022-09-19T10:36:32;99547.75;;;11.92;100.00
45894;BME280;31603;51.148;16.932;2022-09-19T10:39:08;99644.06;;;12.83;100.00
45894;BME280;31603;51.148;16.932;2022-09-19T10:41:39;99562.19;;;12.06;100.00
45894;BME280;31603;51.148;16.932;2022-09-19T10:44:56;99673.47;;;13.12;100.00
45894;BME280;31603;51.148;16.932;2022-09-19T10:47:08;99668.06;;;12.82;100.00
45894;BME280;31603;51.148;16.932;2022-09-19T10:49:43;99646.78;;;12.59;100.00
45894;BME280;31603;51.148;16.932;2022-09-19T10:52:29;99628.56;;;12.46;100.00
45894;BME280;31603;51.148;16.932;2022-09-19T10:55:16;99626.72;;;12.28;100.00
45894;BME280;31603;51.148;16.932;2022-09-19T10:57:57;99595.63;;;12.10;100.00
45894;BME280;31603;51.148;16.932;2022-09-19T11:00:32;99618.06;;;12.13;100.00
45894;BME280;31603;51.148;16.932;2022-09-19T11:03:17;99594.34;;;11.94;100.00
45894;BME280;31603;51.148;16.932;2022-09-19T11:06:02;99684.03;;;12.08;100.00
45894;BME280;31603;51.148;16.932;2022-09-19T11:08:37;99669.59;;;12.66;100.00
45894;BME280;31603;51.148;16.932;2022-09-19T11:11:28;99659.25;;;12.38;100.00
45894;BME280;31603;51.148;16.932;2022-09-19T11:14:21;99654.59;;;12.74;100.00
45894;BME280;31603;51.148;16.932;2022-09-19T11:17:08;99673.69;;;12.64;100.00
45894;BME280;31603;51.148;16.932;2022-09-19T11:19:49;99605.31;;;12.54;100.00
45894;BME280;31603;51.148;16.932;2022-09-19T11:22:35;99625.81;;;12.82;100.00
45894;BME280;31603;51.148;16.932;2022-09-19T11:25:15;99632.41;;;12.57;100.00
45894;BME280;31603;51.148;16.932;2022-09-19T11:27:56;99607.34;;;12.59;100.00
45894;BME280;31603;51.148;16.932;2022-09-19T11:30:49;99676.94;;;12.84;100.00
45894;BME280;31603;51.148;16.932;2022-09-19T11:33:36;99642.31;;;12.04;100.00
45894;BME280;31603;51.148;16.932;2022-09-19T11:36:14;99583.88;;;12.14;100.00
45894;BME280;31603;51.148;16.932;2022-09-19T11:39:04;99686.09;;;12.96;100.00
45894;BME280;31603;51.148;16.932;2022-09-19T11:41:43;99685.97;;;13.38;100.00
45894;BME280;31603;51.148;16.932;2022-09-19T11:44:55;99689.66;;;12.85;100.00
45894;BME280;31603;51.148;16.932;2022-09-19T11:47:36;99686.81;;;13.15;100.00
45894;BME280;31603;51.148;16.932;2022-09-19T11:50:23;99687.66;;;13.39;100.00
45894;BME280;31603;51.148;16.932;2022-09-19T11:53:24;99654.03;;;12.95;100.00
45894;BME280;31603;51.148;16.932;2022-09-19T11:56:17;99632.50;;;12.50;100.00
45894;BME280;31603;51.148;16.932;2022-09-19T11:58:57;99689.28;;;12.70;100.00
45894;BME280;31603;51.148;16.932;2022-09-19T12:01:41;99677.38;;;12.16;100.00
45894;BME280;31603;51.148;16.932;2022-09-19T12:04:18;99683.19;;;12.80;100.00
45894;BME280;31603;51.148;16.932;2022-09-19T12:07:05;99681.59;;;12.30;100.00
45894;BME280;31603;51.148;16.932;2022-09-19T12:09:40;99688.34;;;12.34;100.00
45894;BME280;31603;51.148;16.932;2022-09-19T12:12:11;99668.50;;;12.56;100.00
45894;BME280;31603;51.148;16.932;2022-09-19T12:14:41;99692.34;;;13.39;100.00
45894;BME280;31603;51.148;16.932;2022-09-19T12:17:12;99675.00;;;12.73;100.00
45894;BME280;31603;51.148;16.932;2022-09-19T12:19:43;99656.56;;;13.32;100.00
45894;BME280;31603;51.148;16.932;2022-09-19T12:22:13;99656.66;;;13.14;100.00
45894;BME280;31603;51.148;16.932;2022-09-19T12:24:43;99685.34;;;13.13;100.00
45894;BME280;31603;51.148;16.932;2022-09-19T12:27:22;99685.56;;;14.10;100.00
45894;BME280;31603;51.148;16.932;2022-09-19T12:30:00;99677.44;;;13.05;100.00
45894;BME280;31603;51.148;16.932;2022-09-19T12:32:35;99663.50;;;13.23;100.00
45894;BME280;31603;51.148;16.932;2022-09-19T12:35:12;99678.78;;;13.89;100.00
45894;BME280;31603;51.148;16.932;2022-09-19T12:37:46;99632.28;;;13.11;100.00
45894;BME280;31603;51.148;16.932;2022-09-19T12:40:19;99678.38;;;13.69;100.00
45894;BME280;31603;51.148;16.932;2022-09-19T12:42:56;99660.41;;;13.31;100.00
45894;BME280;31603;51.148;16.932;2022-09-19T12:45:32;99639.25;;;13.89;100.00
45894;BME280;31603;51.148;16.932;2022-09-19T12:48:17;99648.16;;;13.27;100.00
45894;BME280;31603;51.148;16.932;2022-09-19T12:51:10;99681.50;;;13.14;100.00
45894;BME280;31603;51.148;16.932;2022-09-19T12:53:43;99602.66;;;12.47;100.00
45894;BME280;31603;51.148;16.932;2022-09-19T12:56:44;99570.88;;;12.80;100.00
45894;BME280;31603;51.148;16.932;2022-09-19T12:59:23;99678.78;;;12.48;100.00
45894;BME280;31603;51.148;16.932;2022-09-19T13:02:03;99622.66;;;12.43;100.00
45894;BME280;31603;51.148;16.932;2022-09-19T13:04:48;99612.94;;;12.40;100.00
45894;BME280;31603;51.148;16.932;2022-09-19T13:07:29;99638.22;;;12.37;100.00
45894;BME280;31603;51.148;16.932;2022-09-19T13:10:17;99698.78;;;12.86;100.00
45894;BME280;31603;51.148;16.932;2022-09-19T13:12:50;99691.72;;;12.36;100.00
45894;BME280;31603;51.148;16.932;2022-09-19T13:15:24;99691.19;;;12.58;100.00
45894;BME280;31603;51.148;16.932;2022-09-19T13:18:00;99706.94;;;12.92;100.00
45894;BME280;31603;51.148;16.932;2022-09-19T13:20:48;99646.94;;;12.64;100.00
45894;BME280;31603;51.148;16.932;2022-09-19T13:23:34;99698.34;;;13.00;100.00